Time;durP1;ratioP1;P1;durP2;ratioP2;P2;SDS_P1;SDS_P2;PMS_P1;PMS_P2;Temp;Humidity;BMP_temperature;BMP_pressure;BME280_temperature;BME280_humidity;BME280_pressure;Samples;Min_cycle;Max_cycle;Signal;HPM_P1;HPM_P2
2021/07/18 00:01:04;;;;;;;3.40;2.17;;;19.30;75.80;;;;;;4992593;28;20034;-77
2021/07/18 00:03:30;;;;;;;3.80;1.98;;;19.20;75.80;;;;;;4991565;28;20494;-77
2021/07/18 00:05:56;;;;;;;3.78;2.45;;;19.20;75.80;;;;;;4990481;28;20018;-77
2021/07/18 00:08:21;;;;;;;4.20;2.63;;;19.30;76.00;;;;;;4990577;28;20088;-77
2021/07/18 00:10:48;;;;;;;3.63;2.30;;;19.20;76.10;;;;;;4992418;28;20041;-77
2021/07/18 00:13:14;;;;;;;3.85;2.20;;;19.20;76.00;;;;;;4992246;28;20033;-77
2021/07/18 00:15:39;;;;;;;4.85;2.63;;;19.30;76.10;;;;;;4992218;28;20034;-77
2021/07/18 00:18:05;;;;;;;5.10;2.58;;;19.30;76.20;;;;;;4992943;28;20464;-78
2021/07/18 00:20:30;;;;;;;4.80;2.88;;;19.30;76.30;;;;;;4990038;28;20041;-77
2021/07/18 00:22:56;;;;;;;8.27;2.50;;;19.30;76.40;;;;;;4992267;28;20034;-77
2021/07/18 00:25:22;;;;;;;8.23;2.42;;;19.30;76.40;;;;;;4991684;28;20033;-78
2021/07/18 00:27:47;;;;;;;6.97;2.50;;;19.30;76.40;;;;;;4990847;28;20034;-78
2021/07/18 00:30:13;;;;;;;6.25;2.60;;;19.30;76.50;;;;;;4992990;28;20042;-77
2021/07/18 00:32:39;;;;;;;11.95;2.53;;;19.20;76.50;;;;;;4989188;28;20018;-78
2021/07/18 00:35:06;;;;;;;6.25;2.38;;;19.20;76.70;;;;;;4992173;28;20065;-78
2021/07/18 00:37:31;;;;;;;8.23;2.45;;;19.20;76.80;;;;;;4990729;28;20036;-78
2021/07/18 00:39:57;;;;;;;6.25;1.98;;;19.20;76.90;;;;;;4992072;28;20033;-78
2021/07/18 00:42:22;;;;;;;9.40;2.03;;;19.20;76.90;;;;;;4988114;28;20053;-78
2021/07/18 00:44:48;;;;;;;3.20;1.95;;;19.20;76.90;;;;;;4989114;28;20041;-78
2021/07/18 00:47:14;;;;;;;5.55;1.85;;;19.20;76.80;;;;;;4991475;28;20077;-78
2021/07/18 00:49:39;;;;;;;6.40;2.00;;;19.20;76.80;;;;;;4990912;28;20108;-78
2021/07/18 00:52:06;;;;;;;9.38;2.20;;;19.20;76.90;;;;;;4983952;28;20401;-78
2021/07/18 00:54:32;;;;;;;7.57;2.22;;;19.20;77.00;;;;;;4991981;28;20058;-78
2021/07/18 00:56:59;;;;;;;5.85;1.70;;;19.20;77.10;;;;;;4989395;28;20430;-78
2021/07/18 00:59:25;;;;;;;14.93;2.00;;;19.10;77.20;;;;;;4992266;28;20022;-79
2021/07/18 01:01:51;;;;;;;3.75;1.60;;;19.10;77.20;;;;;;4992002;28;20118;-77
2021/07/18 01:04:16;;;;;;;4.07;1.60;;;19.10;77.40;;;;;;4991257;28;20030;-77
2021/07/18 01:06:42;;;;;;;4.70;1.45;;;19.10;77.40;;;;;;4991654;28;20077;-77
2021/07/18 01:09:07;;;;;;;2.92;1.73;;;19.10;77.30;;;;;;4986656;28;20496;-77
2021/07/18 01:11:33;;;;;;;4.35;1.50;;;19.10;77.40;;;;;;4985389;28;20030;-77
2021/07/18 01:13:59;;;;;;;4.00;1.42;;;19.10;77.50;;;;;;4990333;28;20030;-78
2021/07/18 01:16:25;;;;;;;2.63;1.45;;;19.10;77.60;;;;;;4991348;28;20485;-78
2021/07/18 01:18:51;;;;;;;5.40;1.30;;;19.10;77.50;;;;;;4991598;28;20015;-77
2021/07/18 01:21:22;;;;;;;3.15;1.30;;;19.10;77.50;;;;;;4990541;28;20076;-77
2021/07/18 01:23:48;;;;;;;3.30;1.60;;;19.00;77.60;;;;;;4990926;28;20022;-77
2021/07/18 01:26:14;;;;;;;3.20;1.50;;;19.00;77.70;;;;;;4989391;28;20485;-77
2021/07/18 01:28:39;;;;;;;1.80;1.23;;;19.00;77.60;;;;;;4991578;28;20030;-77
2021/07/18 01:31:06;;;;;;;3.72;1.30;;;19.00;77.60;;;;;;4986666;28;20493;-77
2021/07/18 01:33:32;;;;;;;4.25;1.65;;;19.00;77.60;;;;;;4985521;28;20023;-77
2021/07/18 01:35:57;;;;;;;6.82;1.63;;;19.00;77.60;;;;;;4991082;28;20035;-77
2021/07/18 01:38:23;;;;;;;4.03;1.52;;;18.90;77.60;;;;;;4991807;28;20099;-77
2021/07/18 01:40:50;;;;;;;7.35;1.52;;;18.90;77.70;;;;;;4990056;28;20425;-77
2021/07/18 01:43:16;;;;;;;5.28;1.27;;;18.90;77.80;;;;;;4990778;28;20033;-76
2021/07/18 01:45:42;;;;;;;2.28;1.10;;;18.90;77.90;;;;;;4987977;28;20105;-76
2021/07/18 01:48:08;;;;;;;6.45;1.25;;;18.90;78.00;;;;;;4982110;28;20105;-76
2021/07/18 01:50:33;;;;;;;5.07;1.05;;;18.80;78.00;;;;;;4990762;28;20065;-76
2021/07/18 01:53:00;;;;;;;6.50;1.50;;;18.80;78.10;;;;;;4990210;28;20449;-76
2021/07/18 01:55:25;;;;;;;2.60;1.30;;;18.80;78.20;;;;;;4981397;28;20023;-77
2021/07/18 01:57:51;;;;;;;3.53;1.42;;;18.80;78.30;;;;;;4988324;28;20038;-77
2021/07/18 02:00:17;;;;;;;5.65;1.30;;;18.80;78.40;;;;;;4989506;28;20030;-77
2021/07/18 02:02:44;;;;;;;6.75;1.38;;;18.80;78.50;;;;;;4989777;28;20026;-76
2021/07/18 02:05:11;;;;;;;6.38;1.80;;;18.80;78.50;;;;;;4987730;28;20065;-76
2021/07/18 02:07:37;;;;;;;5.45;1.73;;;18.80;78.60;;;;;;4990468;28;20026;-76
2021/07/18 02:10:04;;;;;;;5.05;1.33;;;18.70;78.70;;;;;;4991471;28;20502;-77
2021/07/18 02:12:32;;;;;;;1.50;1.40;;;18.70;78.70;;;;;;4987677;28;20026;-76
2021/07/18 02:14:58;;;;;;;5.30;1.50;;;18.70;78.70;;;;;;4989211;28;20030;-76
2021/07/18 02:17:24;;;;;;;4.93;1.58;;;18.80;78.70;;;;;;4985949;28;20026;-76
2021/07/18 02:19:49;;;;;;;5.68;1.80;;;18.70;78.80;;;;;;4990173;28;20038;-76
2021/07/18 02:22:18;;;;;;;2.42;1.30;;;18.70;79.00;;;;;;4990393;28;20030;-77
2021/07/18 02:24:43;;;;;;;5.43;1.48;;;18.70;79.00;;;;;;4991183;28;20469;-77
2021/07/18 02:27:10;;;;;;;3.25;1.58;;;18.70;79.00;;;;;;4991036;28;20030;-78
2021/07/18 02:29:35;;;;;;;2.05;1.60;;;18.70;79.10;;;;;;4991591;28;20039;-78
2021/07/18 02:32:01;;;;;;;1.67;1.58;;;18.70;79.30;;;;;;4993404;28;20041;-78
2021/07/18 02:34:26;;;;;;;2.50;1.60;;;18.60;79.40;;;;;;4993723;28;20085;-78
2021/07/18 02:36:52;;;;;;;7.07;1.70;;;18.70;79.50;;;;;;4994910;28;20098;-78
2021/07/18 02:39:17;;;;;;;3.47;1.55;;;18.70;79.40;;;;;;4993213;28;20023;-78
2021/07/18 02:41:43;;;;;;;4.22;1.63;;;18.70;79.50;;;;;;4993202;28;20030;-78
2021/07/18 02:44:09;;;;;;;5.47;1.50;;;18.70;79.50;;;;;;4994824;28;20035;-78
2021/07/18 02:46:35;;;;;;;4.53;1.67;;;18.70;79.50;;;;;;4992060;28;20031;-78
2021/07/18 02:49:01;;;;;;;7.72;1.70;;;18.80;79.60;;;;;;4989765;28;20504;-78
2021/07/18 02:51:27;;;;;;;8.52;1.85;;;18.70;79.70;;;;;;4993495;28;20281;-78
2021/07/18 02:53:53;;;;;;;13.45;2.00;;;18.70;79.80;;;;;;4990413;28;20025;-78
2021/07/18 02:56:19;;;;;;;8.48;2.17;;;18.80;80.00;;;;;;4993201;28;20548;-78
2021/07/18 02:58:45;;;;;;;7.47;1.88;;;18.80;80.10;;;;;;4992914;28;20030;-77
2021/07/18 03:01:10;;;;;;;4.55;1.35;;;18.80;80.10;;;;;;4993193;28;20114;-78
2021/07/18 03:03:36;;;;;;;6.57;1.83;;;18.70;80.10;;;;;;4991471;28;20065;-78
2021/07/18 03:06:01;;;;;;;4.63;1.40;;;18.80;80.10;;;;;;4987279;28;20385;-78
2021/07/18 03:08:27;;;;;;;5.45;1.58;;;18.80;80.10;;;;;;4993591;28;20099;-78
2021/07/18 03:10:52;;;;;;;5.93;1.80;;;18.90;80.10;;;;;;4993517;28;20117;-78
2021/07/18 03:13:18;;;;;;;6.25;1.52;;;18.90;80.10;;;;;;4990440;28;20037;-78
2021/07/18 03:15:43;;;;;;;9.27;1.90;;;18.80;80.20;;;;;;4992677;28;20034;-78
2021/07/18 03:18:09;;;;;;;5.60;1.42;;;18.90;80.30;;;;;;4992339;28;20129;-78
2021/07/18 03:20:35;;;;;;;8.18;1.88;;;18.90;80.20;;;;;;4989411;28;20074;-78
2021/07/18 03:23:00;;;;;;;4.68;1.65;;;18.90;80.20;;;;;;4993236;28;20384;-78
2021/07/18 03:25:26;;;;;;;8.63;2.00;;;18.90;80.20;;;;;;4993744;28;20477;-77
2021/07/18 03:27:51;;;;;;;8.40;1.92;;;18.90;80.30;;;;;;4991295;28;20097;-76
2021/07/18 03:30:19;;;;;;;6.53;1.92;;;18.90;80.40;;;;;;4990016;28;20410;-77
2021/07/18 03:32:44;;;;;;;10.18;2.20;;;18.90;80.50;;;;;;4993241;28;20026;-77
2021/07/18 03:35:12;;;;;;;6.10;2.20;;;18.90;80.60;;;;;;4993045;28;20030;-77
2021/07/18 03:37:39;;;;;;;2.60;1.98;;;18.90;80.60;;;;;;4993561;28;20500;-77
2021/07/18 03:40:07;;;;;;;6.55;2.45;;;18.90;80.60;;;;;;4991346;28;20560;-77
2021/07/18 03:42:32;;;;;;;12.50;3.00;;;18.90;80.70;;;;;;4987613;28;20062;-76
2021/07/18 03:44:58;;;;;;;6.75;2.58;;;18.80;80.70;;;;;;4989668;28;20418;-77
2021/07/18 03:47:23;;;;;;;5.75;2.22;;;18.80;80.80;;;;;;4992600;28;20057;-76
2021/07/18 03:49:49;;;;;;;6.38;2.10;;;18.80;80.80;;;;;;4992787;28;20061;-76
2021/07/18 03:52:14;;;;;;;4.05;2.70;;;18.80;80.80;;;;;;4983837;28;20019;-77
2021/07/18 03:54:40;;;;;;;9.10;3.00;;;18.80;80.90;;;;;;4992928;28;20507;-77
2021/07/18 03:57:06;;;;;;;6.90;2.63;;;18.80;81.60;;;;;;4992258;28;20073;-77
2021/07/18 03:59:31;;;;;;;6.65;2.88;;;18.80;80.90;;;;;;4988816;28;20027;-77
2021/07/18 04:01:57;;;;;;;9.95;2.72;;;18.80;81.00;;;;;;4991539;28;20544;-77
2021/07/18 04:04:22;;;;;;;5.32;2.78;;;18.80;81.10;;;;;;4992679;28;20473;-76
2021/07/18 04:06:48;;;;;;;9.85;2.78;;;18.80;81.10;;;;;;4986333;28;20058;-77
2021/07/18 04:09:13;;;;;;;10.30;2.70;;;18.80;81.10;;;;;;4990018;28;20113;-77
2021/07/18 04:11:39;;;;;;;4.00;2.67;;;18.70;81.20;;;;;;4991969;28;20033;-77
2021/07/18 04:14:04;;;;;;;4.45;2.58;;;18.80;81.30;;;;;;4989713;28;20381;-77
2021/07/18 04:16:30;;;;;;;4.30;2.78;;;18.80;81.30;;;;;;4990342;28;20089;-77
2021/07/18 04:18:55;;;;;;;2.90;2.35;;;18.80;81.30;;;;;;4990956;28;20084;-78
2021/07/18 04:21:21;;;;;;;7.85;3.03;;;18.90;81.50;;;;;;4991884;28;20096;-76
2021/07/18 04:23:47;;;;;;;4.90;3.00;;;18.90;81.20;;;;;;4991836;28;20033;-76
2021/07/18 04:26:12;;;;;;;6.93;2.92;;;18.90;81.20;;;;;;4992092;28;20026;-77
2021/07/18 04:28:38;;;;;;;7.55;3.30;;;18.90;81.20;;;;;;4985423;28;20049;-76
2021/07/18 04:31:04;;;;;;;5.88;2.67;;;18.90;81.10;;;;;;4989057;28;20090;-77
2021/07/18 04:33:29;;;;;;;6.50;3.60;;;18.90;81.10;;;;;;4990611;28;20037;-78
2021/07/18 04:35:55;;;;;;;10.20;3.28;;;19.00;81.00;;;;;;4992342;28;20430;-77
2021/07/18 04:38:20;;;;;;;3.17;2.75;;;19.00;81.10;;;;;;4991786;28;20033;-78
2021/07/18 04:40:46;;;;;;;3.30;2.75;;;18.90;81.10;;;;;;4991843;28;20018;-77
2021/07/18 04:43:11;;;;;;;3.58;2.85;;;19.00;81.10;;;;;;4991326;28;20026;-77
2021/07/18 04:45:37;;;;;;;4.60;3.30;;;19.00;81.00;;;;;;4992114;28;20361;-77
2021/07/18 04:48:03;;;;;;;5.10;2.92;;;19.00;81.00;;;;;;4988791;28;20019;-77
2021/07/18 04:50:28;;;;;;;5.70;3.20;;;19.00;80.90;;;;;;4991459;28;20049;-77
2021/07/18 04:52:55;;;;;;;4.45;2.97;;;19.00;80.90;;;;;;4991695;28;20019;-78
2021/07/18 04:55:20;;;;;;;5.43;2.92;;;19.10;80.90;;;;;;4988305;28;20060;-77
2021/07/18 04:57:46;;;;;;;4.70;2.50;;;19.10;80.70;;;;;;4991297;28;20050;-77
2021/07/18 05:00:17;;;;;;;4.40;2.80;;;19.10;80.70;;;;;;4991764;28;20022;-77
2021/07/18 05:02:43;;;;;;;2.47;2.08;;;19.10;80.60;;;;;;4981275;28;20027;-76
2021/07/18 05:05:10;;;;;;;3.75;2.80;;;19.10;80.40;;;;;;4991633;28;20067;-77
2021/07/18 05:07:55;;;;;;;3.95;2.70;;;19.10;80.40;;;;;;4991952;28;20068;-77
2021/07/18 05:10:23;;;;;;;4.53;2.60;;;19.10;80.30;;;;;;4985199;28;20034;-77
2021/07/18 05:12:50;;;;;;;2.97;2.40;;;19.20;80.20;;;;;;4991287;28;20053;-77
2021/07/18 05:15:17;;;;;;;2.05;1.85;;;19.20;80.10;;;;;;4989601;28;20049;-77
2021/07/18 05:17:42;;;;;;;2.25;2.05;;;19.20;80.00;;;;;;4986740;28;20022;-77
2021/07/18 05:20:09;;;;;;;3.05;2.40;;;19.30;79.90;;;;;;4982456;28;20551;-77
2021/07/18 05:22:35;;;;;;;2.88;2.15;;;19.30;79.60;;;;;;4989226;28;20027;-78
2021/07/18 05:25:02;;;;;;;2.60;2.05;;;19.40;79.40;;;;;;4991290;28;20061;-77
2021/07/18 05:27:28;;;;;;;3.05;2.40;;;19.50;79.10;;;;;;4990571;28;20041;-77
2021/07/18 05:29:54;;;;;;;2.50;2.30;;;19.60;78.80;;;;;;4989872;28;20038;-76
2021/07/18 05:32:19;;;;;;;2.92;2.38;;;19.80;78.20;;;;;;4990710;28;20037;-76
2021/07/18 05:34:45;;;;;;;3.70;2.78;;;20.00;77.90;;;;;;4989911;28;20027;-76
2021/07/18 05:37:11;;;;;;;3.03;2.50;;;20.00;77.60;;;;;;4990496;28;20031;-77
2021/07/18 05:39:36;;;;;;;2.50;2.30;;;20.50;76.90;;;;;;4991448;28;20034;-78
2021/07/18 05:42:02;;;;;;;2.75;2.17;;;20.70;76.20;;;;;;4990289;28;20053;-77
2021/07/18 05:44:29;;;;;;;3.60;2.10;;;20.90;75.60;;;;;;4991327;28;20080;-77
2021/07/18 05:46:54;;;;;;;3.38;2.40;;;21.20;74.60;;;;;;4990473;28;20034;-77
2021/07/18 05:49:20;;;;;;;2.38;2.17;;;21.50;73.70;;;;;;4991371;28;20096;-77
2021/07/18 05:51:45;;;;;;;2.75;2.42;;;21.90;72.70;;;;;;4989945;28;20543;-77
2021/07/18 05:54:11;;;;;;;3.63;2.90;;;22.30;71.60;;;;;;4989669;28;20026;-76
2021/07/18 05:56:37;;;;;;;3.63;2.67;;;22.30;71.20;;;;;;4991190;28;20064;-77
2021/07/18 05:59:02;;;;;;;2.75;2.13;;;22.00;71.70;;;;;;4991281;28;20041;-77
2021/07/18 06:01:28;;;;;;;3.42;2.60;;;21.90;72.20;;;;;;4990208;28;20397;-76
2021/07/18 06:03:54;;;;;;;2.92;2.40;;;21.70;72.50;;;;;;4993456;28;20556;-77
2021/07/18 06:06:19;;;;;;;2.20;2.00;;;22.10;72.00;;;;;;4995051;28;20684;-77
2021/07/18 06:08:45;;;;;;;2.42;2.22;;;22.60;70.90;;;;;;4995311;28;20026;-77
2021/07/18 06:11:10;;;;;;;2.47;2.20;;;23.10;69.70;;;;;;4994024;28;20030;-77
2021/07/18 06:13:36;;;;;;;3.65;2.20;;;23.60;68.30;;;;;;4984286;28;20026;-77
2021/07/18 06:16:01;;;;;;;2.83;2.00;;;24.10;66.80;;;;;;4987641;28;20385;-77
2021/07/18 06:18:27;;;;;;;2.20;2.00;;;24.50;65.70;;;;;;4993866;28;20060;-77
2021/07/18 06:20:52;;;;;;;2.63;2.25;;;24.90;64.80;;;;;;4990444;28;20097;-78
2021/07/18 06:23:18;;;;;;;2.97;2.10;;;25.20;64.10;;;;;;4992097;28;20034;-77
2021/07/18 06:25:43;;;;;;;3.95;2.00;;;25.30;64.00;;;;;;4993896;28;20023;-78
2021/07/18 06:28:09;;;;;;;2.25;2.03;;;25.50;63.80;;;;;;4993791;28;20116;-77
2021/07/18 06:30:34;;;;;;;2.38;1.80;;;25.50;63.80;;;;;;4993260;28;20082;-78
2021/07/18 06:33:00;;;;;;;2.10;1.65;;;25.50;64.00;;;;;;4994441;28;20366;-77
2021/07/18 06:35:26;;;;;;;2.65;2.00;;;25.50;64.30;;;;;;4985581;28;20124;-77
2021/07/18 06:37:51;;;;;;;2.60;2.10;;;25.40;64.70;;;;;;4992398;28;20037;-77
2021/07/18 06:40:17;;;;;;;2.45;2.00;;;25.20;65.30;;;;;;4993610;28;20041;-77
2021/07/18 06:42:42;;;;;;;3.20;2.20;;;24.90;66.00;;;;;;4991899;28;20026;-76
2021/07/18 06:45:09;;;;;;;2.38;2.10;;;24.60;66.80;;;;;;4992964;28;20026;-76
2021/07/18 06:47:34;;;;;;;2.03;1.83;;;24.30;67.30;;;;;;4994890;28;20389;-76
2021/07/18 06:50:00;;;;;;;2.35;1.92;;;24.00;67.90;;;;;;4994692;28;20044;-76
2021/07/18 06:52:26;;;;;;;2.10;1.90;;;23.90;68.60;;;;;;4992543;28;20037;-77
2021/07/18 06:54:52;;;;;;;1.85;1.60;;;23.90;68.80;;;;;;4993055;28;20460;-77
2021/07/18 06:57:19;;;;;;;2.10;1.80;;;23.80;68.80;;;;;;4983913;28;20069;-77
2021/07/18 06:59:46;;;;;;;2.42;1.85;;;23.90;68.80;;;;;;4981112;28;20026;-76
2021/07/18 07:02:11;;;;;;;2.45;1.63;;;23.90;68.80;;;;;;4991090;28;20023;-76
2021/07/18 07:04:37;;;;;;;2.67;1.80;;;23.90;68.70;;;;;;4988749;28;20026;-76
2021/07/18 07:07:03;;;;;;;1.70;1.60;;;23.90;68.60;;;;;;4989709;28;20394;-76
2021/07/18 07:09:28;;;;;;;3.05;1.70;;;23.90;68.50;;;;;;4991125;28;20092;-76
2021/07/18 07:11:54;;;;;;;2.47;1.60;;;23.90;68.50;;;;;;4985344;28;20098;-77
2021/07/18 07:14:19;;;;;;;1.90;1.70;;;24.00;68.50;;;;;;4983020;28;20503;-76
2021/07/18 07:16:45;;;;;;;2.75;1.60;;;24.10;68.40;;;;;;4984527;28;20148;-75
2021/07/18 07:19:10;;;;;;;1.85;1.50;;;24.20;68.10;;;;;;4982842;28;20030;-76
2021/07/18 07:21:37;;;;;;;2.78;2.00;;;24.40;68.00;;;;;;4982438;28;20033;-77
2021/07/18 07:24:03;;;;;;;2.38;1.70;;;24.60;67.70;;;;;;4982213;28;20023;-77
2021/07/18 07:26:29;;;;;;;2.17;1.58;;;24.70;67.40;;;;;;4984703;28;20018;-77
2021/07/18 07:28:55;;;;;;;1.92;1.35;;;24.80;67.10;;;;;;4978418;28;20041;-76
2021/07/18 07:31:20;;;;;;;1.77;1.60;;;25.00;66.80;;;;;;4981399;28;20109;-77
2021/07/18 07:33:47;;;;;;;2.55;1.40;;;25.10;66.30;;;;;;4983864;28;20030;-77
2021/07/18 07:36:14;;;;;;;1.40;1.30;;;25.20;66.10;;;;;;4982265;28;20042;-77
2021/07/18 07:38:40;;;;;;;1.77;1.40;;;25.30;65.70;;;;;;4982631;28;20038;-77
2021/07/18 07:41:05;;;;;;;2.75;1.60;;;25.30;65.50;;;;;;4986789;28;20034;-80
2021/07/18 07:43:31;;;;;;;2.72;1.70;;;25.40;65.30;;;;;;4992905;28;20049;-77
2021/07/18 07:45:56;;;;;;;1.75;1.50;;;25.50;65.00;;;;;;4993353;28;20042;-82
2021/07/18 07:48:22;;;;;;;2.50;1.67;;;25.50;64.70;;;;;;4993050;28;20019;-80
2021/07/18 07:50:48;;;;;;;1.60;1.30;;;25.50;64.40;;;;;;4992618;28;20047;-80
2021/07/18 07:53:13;;;;;;;2.20;1.42;;;25.50;64.40;;;;;;4992033;28;20065;-79
2021/07/18 07:55:39;;;;;;;2.63;1.60;;;25.60;64.00;;;;;;4989808;28;20493;-80
2021/07/18 07:58:06;;;;;;;1.70;1.50;;;25.60;63.60;;;;;;4993691;28;20027;-78
2021/07/18 08:00:32;;;;;;;2.35;1.38;;;25.60;63.40;;;;;;4992596;28;20025;-80
2021/07/18 08:02:57;;;;;;;2.35;1.50;;;25.70;63.00;;;;;;4993254;28;20038;-77
2021/07/18 08:05:23;;;;;;;1.98;1.40;;;25.70;62.70;;;;;;4993001;28;20034;-77
2021/07/18 08:07:49;;;;;;;2.58;1.50;;;25.80;62.40;;;;;;4993086;28;20113;-76
2021/07/18 08:10:17;;;;;;;3.88;1.77;;;25.90;62.00;;;;;;4992908;28;20034;-76
2021/07/18 08:12:44;;;;;;;3.35;2.00;;;25.90;61.30;;;;;;4993087;28;20033;-76
2021/07/18 08:15:11;;;;;;;3.15;1.80;;;25.90;60.60;;;;;;4992703;28;20038;-76
2021/07/18 08:17:37;;;;;;;3.97;1.60;;;25.80;60.80;;;;;;4992589;28;20371;-76
2021/07/18 08:20:14;;;;;;;2.83;1.38;;;25.80;61.00;;;;;;4993005;28;20125;-76
2021/07/18 08:22:40;;;;;;;2.75;1.50;;;25.90;61.00;;;;;;4987961;28;20042;-77
2021/07/18 08:25:07;;;;;;;1.92;1.60;;;26.00;60.70;;;;;;4990344;28;20026;-77
2021/07/18 08:27:34;;;;;;;1.75;1.40;;;26.10;60.50;;;;;;4990729;28;20054;-76
2021/07/18 08:29:59;;;;;;;2.72;1.60;;;26.20;60.50;;;;;;4989836;28;20644;-76
2021/07/18 08:32:25;;;;;;;2.60;1.70;;;26.30;60.10;;;;;;4982790;28;20037;-77
2021/07/18 08:34:50;;;;;;;4.32;1.50;;;26.30;59.80;;;;;;4981495;28;20116;-76
2021/07/18 08:37:16;;;;;;;3.53;1.40;;;26.40;60.00;;;;;;4985876;28;20388;-77
2021/07/18 08:39:41;;;;;;;6.00;1.73;;;26.40;59.50;;;;;;4981580;28;20030;-77
2021/07/18 08:42:08;;;;;;;2.63;1.45;;;26.40;59.00;;;;;;4983568;28;20030;-76
2021/07/18 08:44:34;;;;;;;3.47;1.38;;;26.40;58.50;;;;;;4981924;28;20118;-77
2021/07/18 08:47:00;;;;;;;2.92;1.55;;;26.50;58.70;;;;;;4983249;28;20109;-76
2021/07/18 08:49:26;;;;;;;4.35;1.52;;;26.60;58.60;;;;;;4986116;28;20049;-76
2021/07/18 08:51:53;;;;;;;2.45;1.40;;;26.60;58.30;;;;;;4983857;28;20026;-77
2021/07/18 08:54:19;;;;;;;3.03;1.30;;;26.70;58.10;;;;;;4984656;28;20416;-77
2021/07/18 08:56:46;;;;;;;2.65;1.70;;;26.80;58.00;;;;;;4979911;28;20029;-76
2021/07/18 08:59:12;;;;;;;2.92;1.70;;;26.80;57.20;;;;;;4975164;28;20493;-77
2021/07/18 09:01:41;;;;;;;3.00;1.60;;;26.80;57.20;;;;;;4980154;28;20073;-78
2021/07/18 09:04:07;;;;;;;2.28;1.40;;;26.90;57.30;;;;;;4980912;28;20030;-76
2021/07/18 09:06:50;;;;;;;2.03;1.50;;;26.90;57.10;;;;;;4983592;28;20027;-78
2021/07/18 09:09:22;;;;;;;2.10;1.40;;;26.90;56.90;;;;;;4992748;28;20113;-78
2021/07/18 09:11:56;;;;;;;2.05;1.45;;;26.90;56.80;;;;;;4979751;28;20437;-74
2021/07/18 09:14:22;;;;;;;1.90;1.30;;;27.00;57.10;;;;;;4985053;28;20030;-76
2021/07/18 09:16:51;;;;;;;2.33;1.50;;;27.10;56.80;;;;;;4983234;28;20515;-75
2021/07/18 09:19:29;;;;;;;3.92;1.60;;;27.20;56.60;;;;;;4987880;28;20030;-75
2021/07/18 09:21:57;;;;;;;2.47;1.20;;;27.20;55.80;;;;;;4997290;28;20030;-76
2021/07/18 09:24:29;;;;;;;1.40;1.27;;;27.20;55.90;;;;;;4983559;28;20050;-76
2021/07/18 09:27:08;;;;;;;1.85;1.27;;;27.20;55.80;;;;;;4981705;28;20023;-77
2021/07/18 09:29:35;;;;;;;2.38;1.40;;;27.30;56.00;;;;;;4982874;28;20432;-76
2021/07/18 09:32:06;;;;;;;2.20;1.30;;;27.30;55.60;;;;;;4981556;28;20034;-76
2021/07/18 09:34:38;;;;;;;1.77;1.30;;;27.20;55.40;;;;;;4979678;28;20477;-77
2021/07/18 09:37:10;;;;;;;1.52;1.05;;;27.20;55.70;;;;;;4984424;28;20477;-78
2021/07/18 09:39:37;;;;;;;1.20;0.90;;;27.40;56.00;;;;;;4985790;28;20077;-78
2021/07/18 09:42:02;;;;;;;2.22;1.40;;;27.60;55.90;;;;;;4983404;28;20069;-77
2021/07/18 09:44:40;;;;;;;2.22;1.30;;;27.70;55.30;;;;;;4976011;28;20426;-79
2021/07/18 09:47:05;;;;;;;2.28;1.30;;;27.70;55.20;;;;;;4991264;28;20034;-79
2021/07/18 09:49:33;;;;;;;1.92;1.10;;;27.80;55.20;;;;;;4984076;28;20089;-78
2021/07/18 09:52:18;;;;;;;1.88;1.20;;;27.80;55.30;;;;;;4984946;28;20089;-78
2021/07/18 09:55:05;;;;;;;1.83;1.30;;;27.90;54.10;;;;;;4990067;28;20520;-78
2021/07/18 09:57:41;;;;;;;2.97;1.40;;;27.80;53.60;;;;;;4987211;28;20034;-78
2021/07/18 10:00:10;;;;;;;1.67;1.00;;;27.80;52.90;;;;;;4989312;28;20110;-78
2021/07/18 10:02:38;;;;;;;1.67;1.10;;;27.70;53.20;;;;;;4988652;28;20023;-79
2021/07/18 10:05:04;;;;;;;2.13;1.25;;;27.90;53.30;;;;;;4986989;28;20077;-79
2021/07/18 10:07:35;;;;;;;1.63;1.15;;;27.90;53.00;;;;;;4987226;28;20026;-78
2021/07/18 10:10:04;;;;;;;1.92;1.10;;;28.00;52.90;;;;;;4985019;28;20062;-78
2021/07/18 10:12:30;;;;;;;2.17;1.30;;;28.00;52.90;;;;;;4989849;28;20026;-78
2021/07/18 10:14:58;;;;;;;1.35;1.17;;;28.10;52.90;;;;;;4990767;28;20060;-78
2021/07/18 10:17:24;;;;;;;1.80;1.00;;;28.20;53.00;;;;;;4990080;28;20034;-78
2021/07/18 10:19:50;;;;;;;1.63;1.30;;;28.10;52.60;;;;;;4994730;28;20057;-77
2021/07/18 10:22:17;;;;;;;1.20;1.10;;;28.10;52.20;;;;;;4991006;28;20089;-78
2021/07/18 10:24:44;;;;;;;2.65;1.40;;;28.10;52.40;;;;;;4980538;28;20126;-78
2021/07/18 10:27:12;;;;;;;1.30;1.20;;;28.10;51.90;;;;;;4984334;28;20030;-78
2021/07/18 10:29:38;;;;;;;1.83;1.25;;;28.20;52.50;;;;;;4984094;28;20062;-78
2021/07/18 10:32:07;;;;;;;1.35;1.20;;;28.20;52.50;;;;;;4984423;28;20456;-78
2021/07/18 10:34:35;;;;;;;2.30;1.40;;;28.30;52.60;;;;;;4973790;28;20019;-78
2021/07/18 10:37:09;;;;;;;1.10;1.00;;;28.20;51.90;;;;;;4970083;28;20034;-78
2021/07/18 10:39:41;;;;;;;1.52;1.08;;;28.30;52.30;;;;;;4969989;28;20089;-78
2021/07/18 10:42:13;;;;;;;1.38;1.05;;;28.30;52.40;;;;;;4970272;28;20039;-78
2021/07/18 10:44:50;;;;;;;2.00;1.08;;;28.40;52.10;;;;;;4969024;28;20077;-78
2021/07/18 10:47:16;;;;;;;2.38;1.10;;;28.50;52.30;;;;;;4969889;28;20061;-78
2021/07/18 10:49:44;;;;;;;1.23;1.13;;;28.70;52.80;;;;;;4972876;28;20030;-78
2021/07/18 10:52:13;;;;;;;1.10;1.10;;;28.80;51.30;;;;;;4975314;28;20087;-78
2021/07/18 10:54:42;;;;;;;3.25;1.40;;;28.80;50.90;;;;;;4984859;28;20034;-78
2021/07/18 10:57:23;;;;;;;1.20;1.10;;;28.80;50.20;;;;;;4977402;28;20082;-78
2021/07/18 10:59:49;;;;;;;1.52;1.30;;;28.80;50.40;;;;;;4975267;28;20027;-78
2021/07/18 11:02:21;;;;;;;1.25;1.10;;;28.80;50.30;;;;;;4974819;28;20393;-77
2021/07/18 11:04:51;;;;;;;2.05;1.20;;;28.80;50.40;;;;;;4974093;28;20027;-77
2021/07/18 11:07:25;;;;;;;2.38;1.50;;;28.80;50.30;;;;;;4975019;28;20065;-78
2021/07/18 11:09:59;;;;;;;1.52;1.40;;;28.80;50.30;;;;;;4973782;28;20030;-77
2021/07/18 11:12:31;;;;;;;1.70;1.60;;;28.80;50.20;;;;;;4974763;28;20504;-77
2021/07/18 11:15:14;;;;;;;1.20;1.10;;;28.90;50.10;;;;;;4975402;28;20062;-78
2021/07/18 11:18:06;;;;;;;1.70;1.20;;;28.80;49.90;;;;;;4974576;28;20035;-78
2021/07/18 11:20:42;;;;;;;1.93;1.50;;;28.90;50.30;;;;;;4974580;28;20058;-77
2021/07/18 11:23:10;;;;;;;1.23;1.13;;;28.80;49.80;;;;;;4975352;28;20042;-78
2021/07/18 11:25:42;;;;;;;3.42;1.48;;;28.90;50.20;;;;;;4974893;28;20023;-78
2021/07/18 11:31:13;;;;;;;1.83;1.50;;;29.10;49.60;;;;;;4994366;28;20074;-78
2021/07/18 11:33:43;;;;;;;2.65;1.50;;;29.20;49.50;;;;;;4994434;28;20076;-77
2021/07/18 11:36:10;;;;;;;1.83;1.25;;;29.20;49.30;;;;;;4994052;28;20121;-78
2021/07/18 11:38:35;;;;;;;2.20;1.38;;;29.30;49.50;;;;;;4993792;28;20037;-78
2021/07/18 11:41:23;;;;;;;2.83;1.30;;;29.40;49.40;;;;;;4994053;28;20027;-77
2021/07/18 11:43:53;;;;;;;2.25;1.38;;;29.40;49.40;;;;;;4992822;28;20073;-78
2021/07/18 11:46:21;;;;;;;1.70;1.30;;;29.50;49.20;;;;;;4993636;28;20073;-77
2021/07/18 11:48:55;;;;;;;2.08;1.75;;;29.70;48.90;;;;;;4993760;28;20030;-78
2021/07/18 11:51:23;;;;;;;2.20;1.40;;;29.80;48.20;;;;;;4993901;28;20027;-78
2021/07/18 11:53:51;;;;;;;2.42;1.60;;;29.80;48.10;;;;;;4994091;28;20080;-78
2021/07/18 11:56:24;;;;;;;3.55;1.42;;;29.80;48.00;;;;;;4993533;28;20083;-77
2021/07/18 11:58:50;;;;;;;1.38;1.27;;;30.00;48.00;;;;;;4993694;28;20122;-77
2021/07/18 12:01:23;;;;;;;1.60;1.30;;;30.00;47.90;;;;;;4993252;28;20030;-78
2021/07/18 12:03:49;;;;;;;2.15;1.73;;;30.10;47.70;;;;;;4993630;28;20026;-78
2021/07/18 12:06:19;;;;;;;2.17;1.40;;;30.10;47.50;;;;;;4992043;28;20181;-78
2021/07/18 12:08:45;;;;;;;1.67;1.50;;;30.10;46.80;;;;;;4992250;28;20027;-78
2021/07/18 12:11:12;;;;;;;1.20;1.10;;;30.10;47.40;;;;;;4993243;28;20038;-78
2021/07/18 12:13:39;;;;;;;2.00;1.40;;;30.40;47.80;;;;;;4992305;28;20033;-78
2021/07/18 12:16:05;;;;;;;2.28;1.70;;;30.50;47.50;;;;;;4991657;28;20481;-78
2021/07/18 12:18:31;;;;;;;1.95;1.40;;;30.60;46.20;;;;;;4993376;28;20507;-78
2021/07/18 12:21:30;;;;;;;2.38;1.40;;;30.70;46.40;;;;;;4993099;28;20026;-78
2021/07/18 12:24:22;;;;;;;1.33;1.23;;;30.70;46.40;;;;;;4981674;28;20046;-78
2021/07/18 12:26:51;;;;;;;;;;;30.80;46.50;;;;;;4992151;28;20150;-77
2021/07/18 12:29:17;;;;;;;1.58;1.25;;;30.90;46.40;;;;;;4979205;28;19917;-78
2021/07/18 12:31:45;;;;;;;1.52;1.38;;;31.10;46.50;;;;;;4972403;28;20019;-78
2021/07/18 12:34:11;;;;;;;1.77;1.67;;;31.10;46.20;;;;;;4973555;28;20023;-78
2021/07/18 12:37:01;;;;;;;2.67;1.52;;;31.20;46.00;;;;;;4973827;28;20023;-78
2021/07/18 12:39:42;;;;;;;1.60;1.50;;;31.10;45.70;;;;;;4973753;28;20539;-78
2021/07/18 12:42:18;;;;;;;1.92;1.58;;;31.10;45.60;;;;;;4972152;28;20469;-78
2021/07/18 12:44:49;;;;;;;1.73;1.40;;;31.20;45.90;;;;;;4973517;28;20081;-78
2021/07/18 12:47:33;;;;;;;1.55;1.40;;;31.30;45.50;;;;;;4978992;28;20480;-78
2021/07/18 12:50:09;;;;;;;1.85;1.55;;;31.60;45.50;;;;;;4983385;28;20536;-78
2021/07/18 12:52:50;;;;;;;1.77;1.60;;;31.50;44.60;;;;;;4987456;28;20066;-77